Time;durP1;ratioP1;P1;durP2;ratioP2;P2;SDS_P1;SDS_P2;PMS_P1;PMS_P2;Temp;Humidity;BMP_temperature;BMP_pressure;BME280_temperature;BME280_humidity;BME280_pressure;Samples;Min_cycle;Max_cycle;Signal;HPM_P1;HPM_P2
2022/03/21 00:02:24;;;;;;;21.80;16.70;;;9.30;99.90;;;;;;5073479;28;20660;-42
2022/03/21 00:04:49;;;;;;;20.07;16.63;;;9.30;99.90;;;;;;5063196;28;20236;-40
2022/03/21 00:07:16;;;;;;;24.90;17.77;;;9.20;99.90;;;;;;5081937;28;20418;-40
2022/03/21 00:09:41;;;;;;;18.90;15.63;;;9.40;99.90;;;;;;5052032;28;20304;-40
2022/03/21 00:12:07;;;;;;;21.60;17.57;;;9.10;99.90;;;;;;5077277;28;20870;-41
2022/03/21 00:14:34;;;;;;;21.17;16.83;;;9.30;99.90;;;;;;5049254;28;20202;-40
2022/03/21 00:16:59;;;;;;;21.53;16.20;;;9.10;99.90;;;;;;5049140;28;20635;-39
2022/03/21 00:19:26;;;;;;;21.27;16.23;;;9.30;99.90;;;;;;5060904;28;20927;-39
2022/03/21 00:21:52;;;;;;;20.20;15.97;;;9.20;99.90;;;;;;5059218;28;20235;-40
2022/03/21 00:24:17;;;;;;;22.47;16.53;;;9.40;99.90;;;;;;5049199;28;20841;-42
2022/03/21 00:26:43;;;;;;;21.10;15.90;;;9.10;99.90;;;;;;5063398;28;20188;-39
2022/03/21 00:29:09;;;;;;;24.17;17.17;;;9.20;99.90;;;;;;5067318;28;20181;-41
2022/03/21 00:31:36;;;;;;;20.27;15.13;;;9.10;99.90;;;;;;5048748;28;20254;-41
2022/03/21 00:34:02;;;;;;;21.40;15.73;;;9.10;99.90;;;;;;5055834;28;20764;-41
2022/03/21 00:36:28;;;;;;;20.70;15.17;;;9.10;99.90;;;;;;5048738;28;20789;-43
2022/03/21 00:38:54;;;;;;;20.50;15.00;;;9.10;99.90;;;;;;5048209;28;20496;-40
2022/03/21 00:41:21;;;;;;;21.53;15.73;;;9.10;99.90;;;;;;5064940;28;20272;-40
2022/03/21 00:43:47;;;;;;;24.03;17.00;;;9.00;99.90;;;;;;5070210;28;20561;-41
2022/03/21 00:46:13;;;;;;;21.17;14.57;;;8.90;99.90;;;;;;5054013;28;20428;-39
2022/03/21 00:48:39;;;;;;;23.10;16.10;;;9.00;99.90;;;;;;5051574;28;20416;-40
2022/03/21 00:51:05;;;;;;;19.40;14.70;;;8.70;99.90;;;;;;5047940;28;20561;-40
2022/03/21 00:53:30;;;;;;;20.40;15.83;;;8.90;99.90;;;;;;5048545;28;20234;-40
2022/03/21 00:55:56;;;;;;;22.23;14.20;;;8.90;99.90;;;;;;5051240;28;20236;-42
2022/03/21 00:58:22;;;;;;;17.93;14.80;;;8.80;99.90;;;;;;5069989;28;20193;-42
2022/03/21 01:00:48;;;;;;;20.30;16.10;;;9.00;99.90;;;;;;5047632;28;20655;-41
2022/03/21 01:03:14;;;;;;;21.03;14.70;;;9.00;99.90;;;;;;5054049;28;20447;-40
2022/03/21 01:05:40;;;;;;;18.73;14.03;;;9.30;99.90;;;;;;5054438;28;20952;-40
2022/03/21 01:08:06;;;;;;;21.90;14.80;;;9.20;99.90;;;;;;5048589;28;20419;-39
2022/03/21 01:10:33;;;;;;;23.13;14.70;;;9.00;99.90;;;;;;5059027;28;20436;-40
2022/03/21 01:12:59;;;;;;;22.93;15.27;;;9.00;99.90;;;;;;5055682;28;20424;-40
2022/03/21 01:15:26;;;;;;;18.50;15.60;;;9.00;99.90;;;;;;5052767;28;20793;-39
2022/03/21 01:17:53;;;;;;;21.47;14.63;;;9.00;99.90;;;;;;5050122;28;20435;-40
2022/03/21 01:20:21;;;;;;;24.20;16.10;;;8.90;99.90;;;;;;5051121;28;20537;-39
2022/03/21 01:22:48;;;;;;;20.13;15.80;;;9.10;99.90;;;;;;5048300;28;20458;-41
2022/03/21 01:25:14;;;;;;;24.40;15.53;;;8.80;99.90;;;;;;5049612;28;20482;-40
2022/03/21 01:27:41;;;;;;;20.67;15.27;;;8.80;99.90;;;;;;5071955;28;20418;-41
2022/03/21 01:30:09;;;;;;;19.50;15.10;;;8.70;99.90;;;;;;5053493;28;20767;-40
2022/03/21 01:32:35;;;;;;;25.47;16.00;;;8.90;99.90;;;;;;5047938;28;20574;-40
2022/03/21 01:35:02;;;;;;;23.77;16.40;;;8.90;99.90;;;;;;5052298;28;20424;-40
2022/03/21 01:37:28;;;;;;;23.57;16.67;;;8.80;99.90;;;;;;5046996;28;20439;-41
2022/03/21 01:39:53;;;;;;;21.10;14.67;;;8.90;99.90;;;;;;5047029;28;20471;-40
2022/03/21 01:42:19;;;;;;;21.57;17.40;;;8.90;99.90;;;;;;5064018;28;20230;-39
2022/03/21 01:44:45;;;;;;;21.67;15.73;;;8.90;99.90;;;;;;5066958;28;20213;-39
2022/03/21 01:47:10;;;;;;;22.83;16.80;;;9.10;99.90;;;;;;5047469;28;20789;-39
2022/03/21 01:49:36;;;;;;;22.20;16.13;;;9.00;99.90;;;;;;5059873;28;20272;-42
2022/03/21 01:52:02;;;;;;;19.93;15.37;;;9.00;99.90;;;;;;5047267;28;20202;-39
2022/03/21 01:57:14;;;;;;;23.27;16.40;;;8.90;99.90;;;;;;5068528;28;20456;-40
2022/03/21 01:59:41;;;;;;;23.50;15.37;;;9.10;99.90;;;;;;5060749;28;20466;-40
2022/03/21 02:02:07;;;;;;;22.50;15.97;;;8.90;99.90;;;;;;5047160;28;20994;-39
2022/03/21 02:04:35;;;;;;;21.60;16.40;;;9.00;99.90;;;;;;5055973;28;20438;-40
2022/03/21 02:07:01;;;;;;;27.10;17.57;;;9.20;99.90;;;;;;5047169;28;20455;-39
2022/03/21 02:09:28;;;;;;;22.90;16.67;;;9.00;99.90;;;;;;5052020;28;20424;-42
2022/03/21 02:11:55;;;;;;;22.27;16.50;;;8.90;99.90;;;;;;5064327;28;20424;-40
2022/03/21 02:14:21;;;;;;;20.53;15.83;;;8.90;99.90;;;;;;5065309;28;20434;-40
2022/03/21 02:16:47;;;;;;;20.03;16.20;;;9.00;99.90;;;;;;5054570;28;20432;-41
2022/03/21 02:19:20;;;;;;;19.33;16.20;;;9.10;99.90;;;;;;5051787;28;20537;-40
2022/03/21 02:22:04;;;;;;;21.00;15.33;;;8.90;99.90;;;;;;5047519;28;20272;-40
2022/03/21 02:25:00;;;;;;;22.00;15.43;;;8.90;99.90;;;;;;5046838;28;20922;-41
2022/03/21 02:27:27;;;;;;;22.03;16.33;;;8.80;99.90;;;;;;5067360;28;20967;-40
2022/03/21 02:29:55;;;;;;;23.10;17.17;;;8.90;99.90;;;;;;5056157;28;20523;-40
2022/03/21 02:32:21;;;;;;;23.47;16.40;;;8.80;99.90;;;;;;5047490;28;20432;-41
2022/03/21 02:34:48;;;;;;;24.20;16.70;;;8.80;99.90;;;;;;5047338;28;20429;-40
2022/03/21 02:37:17;;;;;;;23.20;17.23;;;8.90;99.90;;;;;;5046860;28;20497;-40
2022/03/21 02:39:45;;;;;;;24.00;16.87;;;9.20;99.90;;;;;;5046063;28;20464;-40
2022/03/21 02:42:11;;;;;;;24.30;16.97;;;8.90;99.90;;;;;;5056850;28;20996;-40
2022/03/21 02:44:38;;;;;;;21.10;14.80;;;8.80;99.90;;;;;;5073453;28;20443;-42
2022/03/21 02:47:06;;;;;;;23.37;16.37;;;8.80;99.90;;;;;;5046860;28;20642;-40
2022/03/21 02:49:32;;;;;;;20.17;16.27;;;8.80;99.90;;;;;;5059867;28;20476;-43
2022/03/21 02:51:59;;;;;;;21.37;16.43;;;8.70;99.90;;;;;;5050607;28;20432;-42
2022/03/21 02:54:28;;;;;;;22.80;17.83;;;8.90;99.90;;;;;;5050403;28;20466;-41
2022/03/21 02:56:55;;;;;;;20.47;15.90;;;8.70;99.90;;;;;;5065753;28;20450;-40
2022/03/21 02:59:20;;;;;;;24.93;18.30;;;8.80;99.90;;;;;;5076879;28;20503;-40
2022/03/21 03:01:46;;;;;;;22.60;17.63;;;8.80;99.90;;;;;;5049873;28;20948;-40
2022/03/21 03:04:12;;;;;;;26.33;18.40;;;8.90;99.90;;;;;;5055652;28;20363;-40
2022/03/21 03:06:40;;;;;;;22.90;16.33;;;8.60;99.90;;;;;;5054995;28;20540;-39
2022/03/21 03:09:09;;;;;;;22.27;17.10;;;8.60;99.90;;;;;;5051348;28;20684;-40
2022/03/21 03:11:36;;;;;;;23.03;17.07;;;8.60;99.90;;;;;;5055811;28;20475;-40
2022/03/21 03:14:05;;;;;;;27.00;16.67;;;8.80;99.90;;;;;;5066844;28;20477;-39
2022/03/21 03:16:31;;;;;;;22.53;17.90;;;8.70;99.90;;;;;;5050617;28;20430;-39
2022/03/21 03:18:57;;;;;;;24.70;17.50;;;8.50;99.90;;;;;;5051007;28;20463;-40
2022/03/21 03:21:25;;;;;;;23.67;17.10;;;8.60;99.90;;;;;;5055726;28;20329;-41
2022/03/21 03:23:52;;;;;;;20.83;15.90;;;8.50;99.90;;;;;;5051570;28;20205;-39
2022/03/21 03:26:17;;;;;;;24.53;17.63;;;8.50;99.90;;;;;;5058930;28;20541;-40
2022/03/21 03:28:44;;;;;;;22.17;16.70;;;8.40;99.90;;;;;;5059993;28;20421;-40
2022/03/21 03:31:12;;;;;;;20.83;16.33;;;8.40;99.90;;;;;;5055093;28;20225;-41
2022/03/21 03:33:38;;;;;;;24.67;17.90;;;8.40;99.90;;;;;;5051222;28;20431;-43
2022/03/21 03:36:04;;;;;;;25.50;17.40;;;8.20;99.90;;;;;;5059064;28;20792;-41
2022/03/21 03:38:30;;;;;;;20.40;16.73;;;8.20;99.90;;;;;;5050290;28;20428;-39
2022/03/21 03:40:57;;;;;;;22.50;18.40;;;8.10;99.90;;;;;;5049104;28;20478;-40
2022/03/21 03:43:23;;;;;;;23.77;18.07;;;8.10;99.90;;;;;;5066911;28;20543;-40
2022/03/21 03:45:52;;;;;;;23.63;17.43;;;8.10;99.90;;;;;;5061579;28;20431;-39
2022/03/21 03:48:21;;;;;;;21.30;16.97;;;8.10;99.90;;;;;;5049857;28;20277;-40
2022/03/21 03:50:49;;;;;;;23.23;17.40;;;8.20;99.90;;;;;;5055134;28;20463;-40
2022/03/21 03:53:15;;;;;;;26.23;17.50;;;8.00;99.90;;;;;;5049783;28;20871;-39
2022/03/21 03:55:42;;;;;;;25.80;19.00;;;8.10;99.90;;;;;;5046958;28;20205;-40
2022/03/21 03:58:08;;;;;;;25.73;17.90;;;8.00;99.90;;;;;;5065778;28;20529;-40
2022/03/21 04:00:34;;;;;;;22.00;17.03;;;8.20;99.90;;;;;;5062092;28;21055;-39
2022/03/21 04:05:44;;;;;;;23.20;17.50;;;8.00;99.90;;;;;;5051076;28;20420;-40
2022/03/21 04:08:10;;;;;;;28.93;19.60;;;8.10;99.90;;;;;;5049744;28;20454;-40
2022/03/21 04:10:36;;;;;;;25.17;18.80;;;8.00;99.90;;;;;;5061104;28;20284;-42
2022/03/21 04:13:02;;;;;;;21.97;18.17;;;7.90;99.90;;;;;;5065636;28;20196;-40
2022/03/21 04:15:28;;;;;;;25.37;17.67;;;7.80;99.90;;;;;;5071273;28;20190;-39
2022/03/21 04:17:59;;;;;;;26.83;18.90;;;7.60;99.90;;;;;;5049166;28;20502;-40
2022/03/21 04:20:24;;;;;;;25.27;18.40;;;7.70;99.90;;;;;;5058065;28;20219;-41
2022/03/21 04:22:50;;;;;;;23.63;18.00;;;7.90;99.90;;;;;;5050837;28;20435;-40
2022/03/21 04:25:16;;;;;;;24.30;18.07;;;7.80;99.90;;;;;;5048830;28;20213;-39
2022/03/21 04:27:42;;;;;;;27.33;19.83;;;8.10;99.90;;;;;;5058643;28;20473;-40
2022/03/21 04:30:08;;;;;;;25.90;19.10;;;7.80;99.90;;;;;;5067444;28;20201;-40
2022/03/21 04:32:35;;;;;;;23.63;18.67;;;7.90;99.90;;;;;;5049068;28;20194;-42
2022/03/21 04:35:01;;;;;;;22.27;18.60;;;7.80;99.90;;;;;;5056329;28;20722;-40
2022/03/21 04:37:27;;;;;;;30.90;21.37;;;7.90;99.90;;;;;;5048787;28;20439;-40
2022/03/21 04:39:53;;;;;;;30.80;21.63;;;7.90;99.90;;;;;;5048006;28;20468;-40
2022/03/21 04:42:19;;;;;;;26.17;21.33;;;7.90;99.90;;;;;;5059472;28;20441;-41
2022/03/21 04:44:46;;;;;;;26.07;20.80;;;7.90;99.90;;;;;;5074377;28;20499;-40
2022/03/21 04:47:12;;;;;;;23.93;19.17;;;8.20;99.90;;;;;;5048551;28;20439;-40
2022/03/21 04:49:38;;;;;;;27.30;19.70;;;7.80;99.90;;;;;;5051029;28;20431;-40
2022/03/21 04:52:04;;;;;;;25.73;21.03;;;7.90;99.90;;;;;;5048511;28;20225;-42
2022/03/21 04:54:30;;;;;;;28.97;22.00;;;7.60;99.90;;;;;;5048768;28;20201;-40
2022/03/21 04:56:56;;;;;;;29.63;21.37;;;7.60;99.90;;;;;;5055277;28;20454;-41
2022/03/21 04:59:22;;;;;;;28.80;21.63;;;7.70;99.90;;;;;;5075928;28;20204;-40
2022/03/21 05:01:48;;;;;;;25.53;20.53;;;7.70;99.90;;;;;;5046584;28;20439;-40
2022/03/21 05:04:14;;;;;;;25.03;20.90;;;7.40;99.90;;;;;;5048734;28;20185;-39
2022/03/21 05:06:39;;;;;;;28.70;21.17;;;7.30;99.90;;;;;;5059103;28;20217;-40
2022/03/21 05:09:06;;;;;;;24.60;19.73;;;7.30;99.90;;;;;;5049878;28;20424;-39
2022/03/21 05:11:32;;;;;;;26.07;20.33;;;7.40;99.90;;;;;;5062706;28;20201;-40
2022/03/21 05:13:58;;;;;;;25.57;19.93;;;7.30;99.90;;;;;;5064314;28;20449;-40
2022/03/21 05:16:24;;;;;;;25.50;19.97;;;7.30;99.90;;;;;;5064692;28;20185;-41
2022/03/21 05:18:50;;;;;;;25.70;21.33;;;7.40;99.90;;;;;;5047722;28;20212;-40
2022/03/21 05:21:17;;;;;;;26.77;20.00;;;7.40;99.90;;;;;;5054207;28;21153;-40
2022/03/21 05:31:56;;;;;;;28.10;19.70;;;7.30;99.90;;;;;;5066180;28;20558;-40
2022/03/21 05:37:06;;;;;;;28.07;19.57;;;6.90;99.90;;;;;;5048738;28;20201;-39
2022/03/21 05:39:31;;;;;;;25.53;20.07;;;6.90;99.90;;;;;;5047702;28;20977;-40
2022/03/21 05:41:57;;;;;;;28.80;18.63;;;7.10;99.90;;;;;;5051189;28;20351;-43
2022/03/21 05:44:24;;;;;;;25.40;19.20;;;6.80;99.90;;;;;;5058567;28;20427;-39
2022/03/21 05:46:50;;;;;;;22.03;17.40;;;6.90;99.90;;;;;;5054412;28;20200;-40
2022/03/21 05:49:16;;;;;;;24.60;18.23;;;7.10;99.90;;;;;;5047695;28;20436;-39
2022/03/21 05:51:42;;;;;;;25.07;18.27;;;6.80;99.90;;;;;;5059786;28;20439;-39
2022/03/21 05:54:10;;;;;;;24.83;18.73;;;6.70;99.90;;;;;;5047939;28;20919;-40
2022/03/21 05:56:37;;;;;;;23.27;18.17;;;6.80;99.90;;;;;;5048817;28;20219;-39
2022/03/21 06:01:49;;;;;;;25.50;18.33;;;6.90;99.90;;;;;;5052405;28;20427;-42
2022/03/21 06:04:15;;;;;;;22.20;17.47;;;6.60;99.90;;;;;;5047534;28;20420;-41
2022/03/21 06:06:42;;;;;;;23.33;17.97;;;6.70;99.90;;;;;;5056415;28;20605;-40
2022/03/21 06:09:08;;;;;;;22.40;17.70;;;6.70;99.90;;;;;;5050001;28;20473;-40
2022/03/21 06:11:36;;;;;;;23.50;17.43;;;6.70;99.90;;;;;;5065532;28;20450;-39
2022/03/21 06:14:05;;;;;;;21.90;17.30;;;6.70;99.90;;;;;;5065565;28;20193;-40
2022/03/21 06:16:34;;;;;;;22.73;18.10;;;6.70;99.90;;;;;;5064035;28;20442;-40
2022/03/21 06:19:00;;;;;;;21.10;16.80;;;6.80;99.90;;;;;;5047295;28;20432;-40
2022/03/21 06:21:29;;;;;;;23.67;17.33;;;7.00;99.90;;;;;;5051581;28;20424;-40
2022/03/21 06:23:55;;;;;;;21.73;17.63;;;6.90;99.90;;;;;;5048732;28;20273;-39
2022/03/21 06:26:21;;;;;;;21.57;16.27;;;7.10;99.90;;;;;;5046628;28;20431;-40
2022/03/21 06:28:47;;;;;;;21.60;15.47;;;7.00;99.90;;;;;;5058470;28;20482;-44
2022/03/21 06:31:13;;;;;;;21.40;15.50;;;7.10;99.90;;;;;;5063560;28;20193;-40
2022/03/21 06:33:40;;;;;;;20.17;14.83;;;7.40;99.90;;;;;;5047214;28;20616;-40
2022/03/21 06:36:06;;;;;;;21.50;16.10;;;7.70;99.90;;;;;;5048568;28;20503;-39
2022/03/21 06:38:32;;;;;;;20.80;16.30;;;8.10;99.90;;;;;;5046808;28;20477;-39
2022/03/21 06:40:58;;;;;;;19.60;16.13;;;8.00;99.90;;;;;;5044999;28;20464;-40
2022/03/21 06:43:25;;;;;;;19.63;15.60;;;8.20;99.90;;;;;;5057954;28;20178;-41
2022/03/21 06:45:51;;;;;;;19.27;15.17;;;8.40;99.90;;;;;;5072428;28;20903;-40
2022/03/21 06:48:18;;;;;;;21.20;16.50;;;8.70;99.90;;;;;;5046398;28;20506;-44
2022/03/21 06:50:46;;;;;;;17.23;14.57;;;8.90;99.90;;;;;;5052895;28;20418;-42
2022/03/21 06:53:13;;;;;;;18.87;15.60;;;9.00;99.90;;;;;;5049533;28;20451;-42
2022/03/21 06:55:39;;;;;;;17.90;14.60;;;9.10;99.90;;;;;;5045953;28;20420;-40
2022/03/21 06:58:06;;;;;;;18.47;15.33;;;9.00;99.90;;;;;;5048355;28;20521;-40
2022/03/21 07:00:32;;;;;;;20.47;14.53;;;9.40;99.90;;;;;;5068316;28;20941;-40
2022/03/21 07:02:58;;;;;;;20.07;15.57;;;9.30;99.90;;;;;;5048311;28;20467;-39
2022/03/21 07:05:26;;;;;;;17.20;14.33;;;9.50;99.90;;;;;;5049671;28;20459;-42
2022/03/21 07:07:52;;;;;;;18.77;14.83;;;9.60;99.90;;;;;;5048633;28;20276;-42
2022/03/21 07:10:17;;;;;;;18.73;14.90;;;9.60;99.30;;;;;;5058594;28;20491;-39
2022/03/21 07:12:43;;;;;;;20.03;15.50;;;9.70;98.70;;;;;;5065745;28;20929;-39
2022/03/21 07:15:09;;;;;;;18.47;14.67;;;9.60;98.70;;;;;;5078350;28;20189;-40
2022/03/21 07:17:34;;;;;;;18.10;14.13;;;9.80;98.30;;;;;;5047216;28;20200;-40
2022/03/21 07:20:00;;;;;;;20.67;15.27;;;9.90;98.50;;;;;;5046053;28;20691;-40
2022/03/21 07:22:26;;;;;;;16.60;14.20;;;10.00;97.60;;;;;;5048164;28;20224;-39
2022/03/21 07:24:52;;;;;;;17.47;14.57;;;10.00;97.10;;;;;;5046505;28;20243;-40
2022/03/21 07:27:19;;;;;;;19.00;14.60;;;10.30;96.80;;;;;;5049891;28;20588;-41
2022/03/21 07:29:44;;;;;;;17.57;14.60;;;10.40;96.90;;;;;;5065687;28;20917;-40
2022/03/21 07:32:10;;;;;;;18.93;14.90;;;10.20;96.60;;;;;;5062735;28;20432;-42
2022/03/21 07:34:36;;;;;;;22.97;15.63;;;10.50;96.60;;;;;;5047514;28;20663;-40
2022/03/21 07:37:02;;;;;;;20.60;15.13;;;10.60;96.60;;;;;;5059377;28;20197;-41
2022/03/21 07:39:29;;;;;;;18.03;14.60;;;10.70;96.30;;;;;;5049968;28;20209;-40
2022/03/21 07:42:00;;;;;;;20.03;15.50;;;10.70;96.20;;;;;;5047371;28;20435;-42
2022/03/21 07:47:23;;;;;;;19.70;15.73;;;11.10;95.90;;;;;;5066000;28;20424;-40
2022/03/21 07:49:50;;;;;;;18.23;14.87;;;11.40;96.40;;;;;;5049010;28;20439;-39
2022/03/21 07:52:20;;;;;;;18.53;14.70;;;11.30;95.60;;;;;;5055206;28;20424;-39
2022/03/21 07:54:53;;;;;;;19.33;14.80;;;11.40;95.50;;;;;;5049801;28;20782;-40
2022/03/21 07:57:24;;;;;;;19.27;14.30;;;11.60;94.50;;;;;;5048293;28;20947;-40
2022/03/21 07:59:51;;;;;;;21.30;15.77;;;11.70;94.70;;;;;;5056649;28;20877;-43
2022/03/21 08:02:19;;;;;;;19.50;15.83;;;12.00;94.40;;;;;;5064659;28;20443;-39
2022/03/21 08:04:47;;;;;;;19.93;15.37;;;11.90;94.40;;;;;;5049197;28;20441;-41
2022/03/21 08:07:16;;;;;;;18.70;14.53;;;12.10;94.40;;;;;;5050244;28;20499;-41
2022/03/21 08:09:42;;;;;;;22.63;16.47;;;12.10;93.50;;;;;;5056385;28;20454;-40
2022/03/21 08:12:09;;;;;;;17.87;14.67;;;12.20;93.20;;;;;;5067542;28;20977;-40
2022/03/21 08:14:35;;;;;;;18.20;15.30;;;12.30;92.90;;;;;;5053308;28;20591;-39
2022/03/21 08:17:02;;;;;;;20.07;16.00;;;12.40;92.90;;;;;;5059940;28;20581;-39
2022/03/21 08:19:28;;;;;;;20.40;15.10;;;12.40;92.80;;;;;;5049324;28;20495;-42
2022/03/21 08:21:54;;;;;;;20.03;15.03;;;12.50;93.00;;;;;;5057487;28;20532;-41
2022/03/21 08:24:21;;;;;;;19.83;16.40;;;12.60;93.40;;;;;;5049260;28;20193;-39
2022/03/21 08:26:47;;;;;;;23.30;15.50;;;12.60;93.10;;;;;;5048772;28;20525;-39
2022/03/21 08:29:12;;;;;;;19.33;14.70;;;12.70;92.40;;;;;;5057068;28;20471;-41
2022/03/21 08:31:39;;;;;;;21.23;16.00;;;12.80;93.00;;;;;;5068401;28;20204;-40
2022/03/21 08:34:04;;;;;;;19.00;15.40;;;12.80;92.50;;;;;;5049212;28;20190;-40
2022/03/21 08:36:31;;;;;;;19.47;15.50;;;12.90;92.10;;;;;;5055749;28;20438;-39
2022/03/21 08:38:57;;;;;;;17.80;14.20;;;12.90;91.60;;;;;;5049145;28;20293;-42
2022/03/21 08:41:23;;;;;;;21.13;15.83;;;12.90;92.20;;;;;;5047820;28;20432;-40
2022/03/21 08:43:49;;;;;;;19.17;15.57;;;12.90;92.00;;;;;;5053457;28;20954;-39
2022/03/21 08:46:15;;;;;;;22.50;16.57;;;13.00;92.20;;;;;;5073301;28;20193;-43
2022/03/21 08:51:25;;;;;;;20.53;16.23;;;13.20;92.20;;;;;;5050269;28;20431;-39
2022/03/21 08:53:51;;;;;;;20.93;16.33;;;13.20;90.90;;;;;;5048430;28;20455;-40
2022/03/21 08:56:17;;;;;;;20.30;16.40;;;13.20;91.50;;;;;;5046121;28;20652;-39
2022/03/21 08:58:43;;;;;;;18.60;15.07;;;13.20;91.20;;;;;;5056278;28;20434;-39
2022/03/21 09:01:09;;;;;;;21.87;15.80;;;13.30;90.90;;;;;;5072583;28;20209;-40
2022/03/21 09:03:34;;;;;;;21.40;16.03;;;13.40;90.70;;;;;;5054004;28;20436;-41
2022/03/21 09:06:00;;;;;;;21.90;15.20;;;13.50;91.30;;;;;;5049652;28;20192;-44
2022/03/21 09:08:26;;;;;;;18.43;15.50;;;13.60;91.50;;;;;;5057564;28;20196;-40
2022/03/21 09:10:52;;;;;;;19.73;16.63;;;13.70;91.30;;;;;;5047306;28;20472;-41
2022/03/21 09:13:18;;;;;;;18.73;14.60;;;13.90;90.70;;;;;;5047744;28;20196;-42
2022/03/21 09:15:44;;;;;;;19.90;15.87;;;14.00;90.50;;;;;;5063364;28;20432;-43
2022/03/21 09:18:10;;;;;;;19.53;15.83;;;14.10;90.60;;;;;;5060473;28;20431;-42
2022/03/21 09:20:36;;;;;;;18.87;16.53;;;14.20;90.60;;;;;;5046079;28;20205;-39
2022/03/21 09:23:02;;;;;;;18.13;15.70;;;14.40;91.50;;;;;;5053028;28;20753;-40
2022/03/21 09:25:28;;;;;;;18.87;14.90;;;14.60;90.90;;;;;;5047619;28;20474;-41
2022/03/21 09:27:54;;;;;;;24.10;16.77;;;14.70;90.10;;;;;;5046388;28;20432;-41
2022/03/21 09:30:19;;;;;;;18.90;16.47;;;14.90;89.90;;;;;;5069909;28;20207;-40
2022/03/21 09:32:45;;;;;;;18.53;15.77;;;15.10;89.60;;;;;;5060833;28;20189;-40
2022/03/21 09:35:13;;;;;;;19.27;15.93;;;15.20;89.70;;;;;;5046283;28;20193;-41
2022/03/21 09:37:39;;;;;;;20.53;16.87;;;15.20;90.40;;;;;;5049034;28;20197;-41
2022/03/21 09:40:06;;;;;;;18.43;15.30;;;15.40;88.70;;;;;;5046561;28;20478;-40
2022/03/21 09:42:34;;;;;;;21.67;17.23;;;15.60;88.40;;;;;;5047719;28;20215;-41
2022/03/21 09:45:00;;;;;;;20.17;16.53;;;15.70;89.30;;;;;;5061846;28;20460;-42
2022/03/21 09:50:12;;;;;;;19.40;16.37;;;16.10;89.10;;;;;;5046488;28;20499;-41
2022/03/21 09:52:39;;;;;;;19.43;17.13;;;16.40;87.40;;;;;;5059143;28;20973;-42
2022/03/21 09:55:07;;;;;;;22.80;17.13;;;16.60;85.90;;;;;;5046613;28;20435;-43
2022/03/21 09:57:33;;;;;;;18.73;16.30;;;16.80;86.10;;;;;;5046362;28;20657;-41
2022/03/21 09:59:59;;;;;;;20.07;16.20;;;16.90;85.90;;;;;;5050219;28;20986;-44
2022/03/21 10:02:25;;;;;;;23.17;17.40;;;17.00;83.90;;;;;;5075420;28;20546;-40
2022/03/21 10:04:52;;;;;;;21.57;17.03;;;17.10;84.80;;;;;;5046973;28;20442;-41
2022/03/21 10:07:28;;;;;;;24.40;17.70;;;17.00;82.50;;;;;;5047146;28;20190;-40
2022/03/21 10:10:12;;;;;;;18.33;16.43;;;17.10;84.50;;;;;;5045243;28;20435;-42
2022/03/21 10:12:39;;;;;;;23.60;17.23;;;17.20;84.20;;;;;;5047177;28;20868;-40
2022/03/21 10:15:10;;;;;;;22.30;16.73;;;17.30;82.30;;;;;;5068178;28;20478;-42
2022/03/21 10:17:36;;;;;;;21.20;17.37;;;17.30;83.60;;;;;;5069669;28;20516;-39
2022/03/21 10:20:03;;;;;;;21.73;17.20;;;17.40;82.50;;;;;;5054025;28;20479;-40
2022/03/21 10:22:43;;;;;;;20.00;16.47;;;17.50;82.60;;;;;;5049365;28;20797;-40
2022/03/21 10:25:19;;;;;;;20.73;16.83;;;17.70;83.20;;;;;;5047165;28;20432;-41
2022/03/21 10:27:47;;;;;;;20.07;16.07;;;17.90;81.80;;;;;;5046812;28;20781;-43
2022/03/21 10:30:18;;;;;;;17.90;15.50;;;18.00;82.10;;;;;;5051941;28;20497;-41
2022/03/21 10:32:55;;;;;;;18.70;16.60;;;18.10;80.40;;;;;;5060980;28;20658;-41
2022/03/21 10:35:29;;;;;;;20.70;17.47;;;18.10;80.20;;;;;;5047107;28;20789;-41
2022/03/21 10:38:03;;;;;;;20.87;16.53;;;18.10;80.60;;;;;;5047024;28;20424;-41
2022/03/21 10:40:36;;;;;;;20.30;17.57;;;18.20;80.70;;;;;;5046255;28;20468;-44
2022/03/21 10:43:09;;;;;;;19.27;16.30;;;18.30;80.00;;;;;;5046213;28;20432;-40
2022/03/21 10:45:35;;;;;;;21.07;16.37;;;18.30;78.70;;;;;;5056963;28;20601;-41
2022/03/21 10:48:04;;;;;;;19.67;16.33;;;18.30;80.00;;;;;;5055846;28;20424;-43
2022/03/21 10:50:43;;;;;;;18.97;14.67;;;18.20;80.00;;;;;;5045010;28;20194;-41
2022/03/21 10:53:26;;;;;;;16.27;14.67;;;18.30;81.80;;;;;;5055069;28;20439;-43
2022/03/21 10:55:58;;;;;;;19.57;16.67;;;18.40;79.90;;;;;;5046156;28;20459;-41
2022/03/21 10:58:40;;;;;;;18.67;16.73;;;18.40;79.20;;;;;;5052353;28;20458;-41
2022/03/21 11:01:12;;;;;;;19.00;15.73;;;18.50;79.80;;;;;;5066571;28;20580;-41
2022/03/21 11:03:42;;;;;;;18.60;16.60;;;18.50;79.00;;;;;;5061918;28;20424;-41
2022/03/21 11:06:11;;;;;;;17.17;15.00;;;18.60;78.50;;;;;;5046924;28;20517;-41
2022/03/21 11:08:37;;;;;;;19.60;15.53;;;18.60;79.00;;;;;;5051238;28;20989;-41
2022/03/21 11:11:04;;;;;;;17.80;14.70;;;18.70;79.20;;;;;;5049897;28;20439;-41
2022/03/21 11:13:32;;;;;;;16.87;15.07;;;18.60;79.60;;;;;;5049722;28;20523;-43
2022/03/21 11:15:58;;;;;;;19.00;15.97;;;18.70;79.80;;;;;;5070085;28;20884;-44
2022/03/21 11:18:28;;;;;;;16.63;14.83;;;18.50;78.70;;;;;;5064558;28;20426;-46
2022/03/21 11:20:55;;;;;;;16.40;14.80;;;18.60;79.20;;;;;;5049596;28;20592;-40
2022/03/21 11:23:21;;;;;;;16.97;14.90;;;18.60;78.40;;;;;;5051567;28;20782;-42
2022/03/21 11:26:07;;;;;;;16.70;14.63;;;18.60;78.80;;;;;;5050315;28;20443;-42
2022/03/21 11:28:41;;;;;;;18.33;13.97;;;18.60;78.10;;;;;;5049114;28;20707;-45
2022/03/21 11:31:42;;;;;;;18.40;15.63;;;18.70;79.20;;;;;;5071260;28;20423;-42
2022/03/21 11:34:31;;;;;;;17.37;15.50;;;18.70;79.20;;;;;;5061831;28;20427;-41
2022/03/21 11:36:58;;;;;;;18.40;14.80;;;18.80;79.90;;;;;;5050648;28;21039;-42
2022/03/21 11:39:25;;;;;;;21.43;15.30;;;18.90;78.60;;;;;;5058804;28;20974;-43
2022/03/21 11:42:03;;;;;;;19.10;15.40;;;19.00;77.30;;;;;;5049588;28;20424;-43
2022/03/21 11:44:29;;;;;;;18.00;15.13;;;19.10;76.80;;;;;;5051107;28;20451;-44
2022/03/21 11:47:25;;;;;;;16.63;14.03;;;19.00;78.60;;;;;;5068450;28;20851;-42
2022/03/21 11:49:53;;;;;;;18.40;14.90;;;19.10;78.50;;;;;;5053316;28;20519;-47
2022/03/21 11:52:18;;;;;;;18.77;14.10;;;19.20;79.30;;;;;;5052326;28;20428;-43
2022/03/21 11:54:45;;;;;;;14.87;13.37;;;19.30;80.80;;;;;;5052776;28;20439;-41
2022/03/21 11:57:16;;;;;;;17.07;13.17;;;19.30;77.80;;;;;;5048767;28;20298;-43
2022/03/21 11:59:42;;;;;;;15.97;13.70;;;19.30;76.80;;;;;;5053743;28;20578;-42
2022/03/21 12:02:08;;;;;;;17.00;12.80;;;19.40;79.40;;;;;;5083141;28;20505;-42
2022/03/21 12:04:34;;;;;;;14.47;12.57;;;19.30;76.50;;;;;;5051769;28;20671;-41
2022/03/21 12:07:20;;;;;;;14.73;12.17;;;19.40;78.60;;;;;;5049588;28;20190;-41
2022/03/21 12:09:50;;;;;;;17.90;12.43;;;19.40;77.20;;;;;;5048625;28;20431;-41
2022/03/21 12:12:22;;;;;;;16.33;13.00;;;19.30;78.20;;;;;;5049418;28;20432;-41
2022/03/21 12:14:56;;;;;;;14.37;11.73;;;19.30;78.10;;;;;;5049608;28;20455;-42
2022/03/21 12:17:22;;;;;;;13.60;12.10;;;19.30;76.40;;;;;;5072765;28;20496;-43
2022/03/21 12:22:34;;;;;;;13.77;11.63;;;19.50;77.60;;;;;;5050424;28;20201;-45
2022/03/21 12:25:05;;;;;;;15.07;12.13;;;19.60;78.20;;;;;;5049334;28;20459;-42
2022/03/21 12:27:47;;;;;;;13.20;11.80;;;19.80;79.10;;;;;;5048935;28;20478;-45
2022/03/21 12:30:19;;;;;;;17.77;12.70;;;19.80;79.00;;;;;;5049013;28;20458;-43
2022/03/21 12:32:53;;;;;;;13.17;11.77;;;19.70;76.10;;;;;;5063429;28;20414;-41
2022/03/21 12:35:45;;;;;;;14.73;10.73;;;19.30;77.10;;;;;;5051163;28;20889;-43
2022/03/21 12:38:10;;;;;;;14.60;11.50;;;19.20;77.40;;;;;;5053387;28;20436;-42
2022/03/21 12:40:37;;;;;;;14.97;11.73;;;19.20;79.40;;;;;;5048168;28;20470;-43
2022/03/21 12:43:04;;;;;;;12.20;10.73;;;19.30;78.30;;;;;;5048749;28;20263;-44
2022/03/21 12:45:31;;;;;;;12.53;11.27;;;19.30;78.20;;;;;;5050085;28;20444;-44
2022/03/21 12:48:05;;;;;;;13.20;11.53;;;19.50;79.30;;;;;;5065500;28;20418;-41
2022/03/21 12:50:32;;;;;;;16.10;12.37;;;19.60;79.30;;;;;;5050532;28;20424;-42
2022/03/21 12:53:04;;;;;;;12.90;10.70;;;19.70;79.40;;;;;;5050093;28;20434;-45
2022/03/21 12:55:30;;;;;;;13.07;11.30;;;19.50;78.30;;;;;;5047362;28;20461;-44
2022/03/21 12:58:01;;;;;;;12.83;11.43;;;19.50;77.70;;;;;;5048318;28;20454;-44
2022/03/21 13:00:34;;;;;;;13.03;11.73;;;19.50;80.60;;;;;;5056640;28;20476;-47
2022/03/21 13:03:18;;;;;;;13.33;10.43;;;19.40;79.80;;;;;;5060991;28;20782;-44
2022/03/21 13:11:37;;;;;;;13.47;11.10;;;19.30;78.10;;;;;;5047853;28;20922;-46
2022/03/21 13:14:14;;;;;;;13.67;11.20;;;19.30;78.40;;;;;;5048143;28;20899;-47